Prince Rupert, Canada
Current Conditions -  °F | °C
As of 1:00 AM on Friday 24 Oct 2014 (Local Time) from CYPR Reporting Station
Broken Clouds Broken Clouds  
Wind Chill: 40°   Ceiling: 14000
Heat Index: 45°   Visibility: 9mi
Dew Point: 41°   Wind: 8mph
Humidity: 87%   Direction: 120°ESE
Pressure: 29.8"   Gusts: NA
Location:  54.31°N, 130.33°W
Report Text: CYPR 240800Z AUTO 12007KT 9SM SCT120 BKN140 07/05 A2980 RMK SLP091
Loading
Personal Weather Stations






























Interactive Weather Map
Tropical Storm Tracking
New forecast layout! Learn more

10-Day Weather Forecast

Advertisements
Track Severe Weather on mobile